Time;durP1;ratioP1;P1;durP2;ratioP2;P2;SDS_P1;SDS_P2;PMS_P1;PMS_P2;Temp;Humidity;BMP_temperature;BMP_pressure;BME280_temperature;BME280_humidity;BME280_pressure;Samples;Min_cycle;Max_cycle;Signal;HPM_P1;HPM_P2
2022/07/27 00:00:09;;;;;;;1.80;1.45;;;;;;;;;;4949742;28;20411;-63
2022/07/27 00:02:34;;;;;;;1.75;1.60;;;;;;;;;;4950175;28;20487;-62
2022/07/27 00:04:59;;;;;;;2.47;1.77;;;;;;;;;;4950633;28;20435;-62
2022/07/27 00:07:25;;;;;;;2.28;1.67;;;;;;;;;;4951037;28;20360;-62
2022/07/27 00:09:50;;;;;;;2.42;1.70;;;;;;;;;;4949893;28;20050;-63
2022/07/27 00:12:16;;;;;;;2.58;1.75;;;;;;;;;;4950994;28;20433;-63
2022/07/27 00:14:41;;;;;;;2.85;1.75;;;;;;;;;;4950389;28;20476;-62
2022/07/27 00:17:06;;;;;;;2.42;1.73;;;;;;;;;;4931899;28;20030;-62
2022/07/27 00:19:32;;;;;;;2.20;1.50;;;;;;;;;;4950090;28;20466;-62
2022/07/27 00:21:57;;;;;;;2.47;1.90;;;;;;;;;;4949037;28;20539;-63
2022/07/27 00:24:23;;;;;;;2.63;1.70;;;;;;;;;;4949891;28;20344;-63
2022/07/27 00:26:49;;;;;;;2.67;1.80;;;;;;;;;;4949720;28;20471;-63
2022/07/27 00:29:15;;;;;;;2.50;1.55;;;;;;;;;;4952856;28;20440;-63
2022/07/27 00:31:40;;;;;;;2.33;1.75;;;;;;;;;;4953672;28;20558;-64
2022/07/27 00:34:05;;;;;;;2.22;1.70;;;;;;;;;;4954391;28;20030;-63
2022/07/27 00:36:31;;;;;;;1.85;1.60;;;;;;;;;;4953598;28;20317;-63
2022/07/27 00:38:56;;;;;;;3.55;1.60;;;;;;;;;;4953380;28;20493;-62
2022/07/27 00:41:22;;;;;;;2.33;1.70;;;;;;;;;;4953734;28;20441;-62
2022/07/27 00:43:54;;;;;;;2.22;1.70;;;;;;;;;;4953816;28;20050;-62
2022/07/27 00:46:20;;;;;;;3.28;1.88;;;;;;;;;;4953370;28;20443;-62
2022/07/27 00:48:45;;;;;;;3.08;2.00;;;;;;;;;;4954611;28;20317;-62
2022/07/27 00:51:12;;;;;;;2.22;1.58;;;;;;;;;;4953185;28;20330;-63
2022/07/27 00:53:37;;;;;;;2.38;1.77;;;;;;;;;;4935338;28;20029;-62
2022/07/27 00:56:03;;;;;;;2.60;2.00;;;;;;;;;;4935730;28;20425;-64
2022/07/27 00:58:28;;;;;;;2.38;1.60;;;;;;;;;;4954597;28;20482;-62
2022/07/27 01:00:54;;;;;;;3.10;1.73;;;;;;;;;;4948188;28;20353;-65
2022/07/27 01:03:19;;;;;;;2.83;1.83;;;;;;;;;;4945566;28;20424;-63
2022/07/27 01:05:45;;;;;;;2.20;1.77;;;;;;;;;;4953136;28;20357;-63
2022/07/27 01:08:12;;;;;;;2.78;1.88;;;;;;;;;;4935544;28;20483;-62
2022/07/27 01:10:38;;;;;;;4.50;1.90;;;;;;;;;;4952870;28;20334;-63
2022/07/27 01:13:04;;;;;;;2.20;1.67;;;;;;;;;;4952722;28;20360;-64
2022/07/27 01:15:29;;;;;;;2.10;1.80;;;;;;;;;;4952522;28;20038;-62
2022/07/27 01:17:55;;;;;;;4.22;1.60;;;;;;;;;;4935429;28;20355;-62
2022/07/27 01:20:21;;;;;;;2.35;1.77;;;;;;;;;;4954038;28;20464;-62
2022/07/27 01:22:46;;;;;;;1.58;1.45;;;;;;;;;;4952651;28;20360;-62
2022/07/27 01:25:13;;;;;;;2.13;1.50;;;;;;;;;;4952357;28;20520;-62
2022/07/27 01:27:38;;;;;;;1.85;1.60;;;;;;;;;;4954377;28;20456;-63
2022/07/27 01:30:25;;;;;;;2.00;1.50;;;;;;;;;;4952511;28;20421;-62
2022/07/27 01:32:50;;;;;;;2.25;1.88;;;;;;;;;;4953548;28;20464;-62
2022/07/27 01:35:15;;;;;;;3.38;1.70;;;;;;;;;;4952722;28;20498;-64
2022/07/27 01:37:41;;;;;;;1.90;1.50;;;;;;;;;;4934951;28;20437;-62
2022/07/27 01:40:06;;;;;;;1.95;1.50;;;;;;;;;;4951015;28;20432;-62
2022/07/27 01:42:32;;;;;;;2.42;1.60;;;;;;;;;;4952076;28;20475;-63
2022/07/27 01:44:57;;;;;;;1.92;1.55;;;;;;;;;;4952332;28;20476;-62
2022/07/27 01:47:23;;;;;;;2.97;1.77;;;;;;;;;;4952602;28;20440;-63
2022/07/27 01:49:48;;;;;;;1.98;1.50;;;;;;;;;;4953347;28;20056;-62
2022/07/27 01:52:13;;;;;;;1.60;1.45;;;;;;;;;;4952147;28;20056;-62
2022/07/27 01:54:39;;;;;;;1.40;1.17;;;;;;;;;;4951902;28;20411;-62
2022/07/27 01:57:04;;;;;;;1.52;1.20;;;;;;;;;;4952122;28;20512;-62
2022/07/27 01:59:29;;;;;;;1.55;1.40;;;;;;;;;;4951860;28;20353;-62
2022/07/27 02:01:55;;;;;;;1.90;1.27;;;;;;;;;;4952125;28;20460;-63
2022/07/27 02:04:22;;;;;;;1.77;1.23;;;;;;;;;;4951856;28;20443;-62
2022/07/27 02:06:47;;;;;;;1.30;1.15;;;;;;;;;;4951903;28;20452;-62
2022/07/27 02:09:12;;;;;;;2.28;1.55;;;;;;;;;;4951963;28;20440;-62
2022/07/27 02:14:22;;;;;;;1.40;1.30;;;;;;;;;;4952327;28;20467;-63
2022/07/27 02:16:47;;;;;;;2.15;1.60;;;;;;;;;;4951660;28;20453;-62
2022/07/27 02:19:13;;;;;;;2.40;1.50;;;;;;;;;;4951474;28;20448;-62
2022/07/27 02:21:38;;;;;;;2.25;1.63;;;;;;;;;;4951048;28;20329;-62
2022/07/27 02:24:04;;;;;;;1.65;1.33;;;;;;;;;;4951770;28;20344;-62
2022/07/27 02:26:29;;;;;;;2.45;1.08;;;;;;;;;;4952374;28;20432;-62
2022/07/27 02:28:55;;;;;;;2.22;1.60;;;;;;;;;;4951882;28;20464;-63
2022/07/27 02:31:20;;;;;;;1.77;1.30;;;;;;;;;;4951225;28;20417;-62
2022/07/27 02:33:46;;;;;;;8.02;1.92;;;;;;;;;;4951691;28;20048;-62
2022/07/27 02:36:11;;;;;;;2.22;1.63;;;;;;;;;;4951279;28;20452;-62
2022/07/27 02:38:37;;;;;;;1.48;1.13;;;;;;;;;;4951130;28;20392;-62
2022/07/27 02:41:02;;;;;;;1.67;1.48;;;;;;;;;;4951145;28;20487;-62
2022/07/27 02:43:27;;;;;;;1.70;1.25;;;;;;;;;;4951189;28;20436;-62
2022/07/27 02:45:53;;;;;;;1.40;1.20;;;;;;;;;;4951309;28;20433;-63
2022/07/27 02:48:19;;;;;;;1.92;1.50;;;;;;;;;;4951160;28;20512;-64
2022/07/27 02:50:45;;;;;;;1.40;1.10;;;;;;;;;;4950170;28;20437;-63
2022/07/27 02:53:10;;;;;;;1.80;1.30;;;;;;;;;;4951281;28;20448;-62
2022/07/27 02:55:35;;;;;;;1.77;1.20;;;;;;;;;;4951405;28;20026;-66
2022/07/27 02:58:01;;;;;;;1.55;1.40;;;;;;;;;;4951584;28;20340;-64
2022/07/27 03:00:26;;;;;;;1.95;1.20;;;;;;;;;;4951349;28;20128;-62
2022/07/27 03:02:52;;;;;;;2.05;1.48;;;;;;;;;;4932980;28;20341;-62
2022/07/27 03:05:17;;;;;;;1.60;1.40;;;;;;;;;;4952455;28;20444;-63
2022/07/27 03:07:42;;;;;;;2.45;1.20;;;;;;;;;;4950991;28;20421;-62
2022/07/27 03:10:08;;;;;;;7.15;1.55;;;;;;;;;;4950642;28;20080;-62
2022/07/27 03:12:33;;;;;;;1.42;1.13;;;;;;;;;;4932929;28;20408;-62
2022/07/27 03:14:59;;;;;;;1.85;1.38;;;;;;;;;;4950729;28;20501;-62
2022/07/27 03:17:24;;;;;;;1.48;1.10;;;;;;;;;;4950326;28;20376;-63
2022/07/27 03:19:50;;;;;;;1.52;1.30;;;;;;;;;;4950100;28;20441;-61
2022/07/27 03:22:15;;;;;;;1.70;1.40;;;;;;;;;;4950067;28;20476;-62
2022/07/27 03:24:41;;;;;;;2.17;1.35;;;;;;;;;;4951040;28;20440;-63
2022/07/27 03:27:06;;;;;;;1.70;1.40;;;;;;;;;;4950554;28;20473;-62
2022/07/27 03:29:31;;;;;;;2.42;1.33;;;;;;;;;;4951535;28;20341;-61
2022/07/27 03:31:57;;;;;;;2.30;1.10;;;;;;;;;;4950535;28;20026;-62
2022/07/27 03:34:22;;;;;;;3.25;1.23;;;;;;;;;;4950247;28;20520;-62
2022/07/27 03:36:48;;;;;;;1.30;1.20;;;;;;;;;;4949905;28;20322;-62
2022/07/27 03:39:13;;;;;;;1.67;1.40;;;;;;;;;;4950904;28;20452;-62
2022/07/27 03:41:39;;;;;;;1.55;1.23;;;;;;;;;;4950017;28;20498;-62
2022/07/27 03:44:05;;;;;;;1.52;0.98;;;;;;;;;;4949912;28;20436;-63
2022/07/27 03:46:30;;;;;;;1.63;1.20;;;;;;;;;;4949774;28;20425;-65
2022/07/27 03:48:56;;;;;;;1.90;1.52;;;;;;;;;;4950249;28;20030;-62
2022/07/27 03:51:22;;;;;;;2.17;1.60;;;;;;;;;;4951329;28;20313;-62
2022/07/27 03:53:47;;;;;;;2.03;1.25;;;;;;;;;;4949817;28;20452;-63
2022/07/27 03:56:12;;;;;;;1.65;1.20;;;;;;;;;;4949816;28;20022;-62
2022/07/27 03:58:38;;;;;;;2.15;1.40;;;;;;;;;;4950348;28;20424;-63
2022/07/27 04:01:03;;;;;;;1.65;1.27;;;;;;;;;;4950342;28;20037;-62
2022/07/27 04:03:29;;;;;;;2.13;1.40;;;;;;;;;;4949367;28;20439;-66
2022/07/27 04:05:54;;;;;;;2.55;1.42;;;;;;;;;;4950070;28;20033;-63
2022/07/27 04:08:20;;;;;;;2.35;1.20;;;;;;;;;;4950169;28;20456;-62
2022/07/27 04:10:46;;;;;;;2.03;1.23;;;;;;;;;;4949618;28;20464;-62
2022/07/27 04:13:12;;;;;;;2.03;1.23;;;;;;;;;;4950079;28;20444;-63
2022/07/27 04:15:37;;;;;;;2.00;1.27;;;;;;;;;;4950798;28;20467;-62
2022/07/27 04:18:03;;;;;;;4.07;1.45;;;;;;;;;;4951509;28;20467;-63
2022/07/27 04:20:28;;;;;;;2.80;1.42;;;;;;;;;;4949259;28;20042;-62
2022/07/27 04:22:54;;;;;;;2.20;1.52;;;;;;;;;;4949626;28;20460;-62
2022/07/27 04:25:20;;;;;;;3.03;1.25;;;;;;;;;;4949384;28;20302;-63
2022/07/27 04:27:46;;;;;;;1.92;1.48;;;;;;;;;;4949513;28;20433;-63
2022/07/27 04:30:12;;;;;;;3.50;1.80;;;;;;;;;;4950532;28;20324;-62
2022/07/27 04:32:37;;;;;;;2.10;1.60;;;;;;;;;;4932032;28;20408;-63
2022/07/27 04:35:03;;;;;;;3.92;2.22;;;;;;;;;;4949400;28;20388;-62
2022/07/27 04:37:29;;;;;;;4.63;2.30;;;;;;;;;;4949233;28;20364;-62
2022/07/27 04:39:57;;;;;;;3.05;2.05;;;;;;;;;;4931471;28;20337;-63
2022/07/27 04:42:23;;;;;;;4.15;2.22;;;;;;;;;;4949520;28;20054;-62
2022/07/27 04:44:48;;;;;;;4.70;2.53;;;;;;;;;;4949422;28;20461;-63
2022/07/27 04:47:14;;;;;;;5.53;2.70;;;;;;;;;;4949240;28;20452;-62
2022/07/27 04:49:39;;;;;;;5.07;2.75;;;;;;;;;;4949559;28;20419;-62
2022/07/27 04:52:05;;;;;;;5.03;2.75;;;;;;;;;;4949473;28;20433;-63
2022/07/27 04:54:30;;;;;;;5.25;2.78;;;;;;;;;;4949018;28;20483;-62
2022/07/27 04:56:55;;;;;;;7.80;3.13;;;;;;;;;;4949149;28;20022;-62
2022/07/27 04:59:21;;;;;;;4.85;2.58;;;;;;;;;;4948959;28;20029;-62
2022/07/27 05:01:46;;;;;;;6.05;3.10;;;;;;;;;;4949382;28;20452;-62
2022/07/27 05:04:12;;;;;;;7.13;3.28;;;;;;;;;;4949930;28;20048;-64
2022/07/27 05:06:37;;;;;;;5.53;2.80;;;;;;;;;;4949036;28;20388;-61
2022/07/27 05:09:03;;;;;;;4.97;2.58;;;;;;;;;;4949442;28;20653;-62
2022/07/27 05:11:28;;;;;;;4.72;2.45;;;;;;;;;;4948919;28;20456;-63
2022/07/27 05:13:54;;;;;;;5.30;2.88;;;;;;;;;;4949892;28;20073;-62
2022/07/27 05:16:19;;;;;;;4.90;3.35;;;;;;;;;;4952697;28;20372;-62
2022/07/27 05:18:45;;;;;;;5.03;2.35;;;;;;;;;;4953250;28;20352;-63
2022/07/27 05:21:11;;;;;;;4.78;2.65;;;;;;;;;;4952315;28;20050;-63
2022/07/27 05:23:36;;;;;;;6.32;2.78;;;;;;;;;;4952736;28;20499;-62
2022/07/27 05:26:02;;;;;;;5.82;3.05;;;;;;;;;;4952704;28;20018;-62
2022/07/27 05:28:27;;;;;;;6.95;3.20;;;;;;;;;;4954153;28;20447;-63
2022/07/27 05:30:53;;;;;;;4.80;2.85;;;;;;;;;;4953898;28;20495;-62
2022/07/27 05:33:18;;;;;;;5.93;3.00;;;;;;;;;;4951877;28;20365;-62
2022/07/27 05:35:43;;;;;;;6.70;3.15;;;;;;;;;;4952657;28;20057;-64
2022/07/27 05:38:09;;;;;;;6.63;3.03;;;;;;;;;;4952401;28;20022;-62
2022/07/27 05:40:34;;;;;;;6.28;2.85;;;;;;;;;;4951995;28;20480;-62
2022/07/27 05:42:59;;;;;;;4.30;2.80;;;;;;;;;;4952689;28;20155;-62
2022/07/27 05:45:25;;;;;;;5.32;2.97;;;;;;;;;;4952128;28;20448;-62
2022/07/27 05:47:53;;;;;;;4.47;2.97;;;;;;;;;;4953638;28;20451;-63
2022/07/27 05:50:18;;;;;;;5.07;3.08;;;;;;;;;;4952537;28;20372;-62
2022/07/27 05:52:44;;;;;;;5.75;2.78;;;;;;;;;;4952076;28;20386;-62
2022/07/27 05:55:09;;;;;;;4.22;2.42;;;;;;;;;;4952271;28;20384;-62
2022/07/27 05:57:36;;;;;;;5.38;2.72;;;;;;;;;;4951991;28;20495;-64
2022/07/27 06:00:04;;;;;;;5.20;2.80;;;;;;;;;;4951696;28;20033;-62
2022/07/27 06:02:30;;;;;;;5.20;3.17;;;;;;;;;;4951620;28;20437;-62
2022/07/27 06:04:56;;;;;;;6.32;2.55;;;;;;;;;;4951748;28;20340;-64
2022/07/27 06:10:06;;;;;;;4.53;3.03;;;;;;;;;;4951494;28;20349;-62
2022/07/27 06:12:38;;;;;;;4.38;2.33;;;;;;;;;;4951518;28;20441;-62
2022/07/27 06:15:06;;;;;;;4.80;2.45;;;;;;;;;;4953343;28;20329;-62
2022/07/27 06:17:32;;;;;;;4.85;2.42;;;;;;;;;;4952898;28;20548;-63
2022/07/27 06:19:57;;;;;;;4.72;2.30;;;;;;;;;;4951807;28;20431;-62
2022/07/27 06:22:22;;;;;;;8.05;3.47;;;;;;;;;;4951348;28;20423;-63
2022/07/27 06:24:48;;;;;;;7.07;3.03;;;;;;;;;;4952693;28;20448;-63
2022/07/27 06:27:13;;;;;;;4.97;2.67;;;;;;;;;;4950745;28;20479;-62
2022/07/27 06:29:39;;;;;;;5.95;2.42;;;;;;;;;;4951601;28;20211;-62
2022/07/27 06:32:04;;;;;;;4.45;2.65;;;;;;;;;;4951220;28;20461;-62
2022/07/27 06:34:30;;;;;;;4.82;2.40;;;;;;;;;;4951661;28;20123;-62
2022/07/27 06:36:58;;;;;;;4.20;2.30;;;;;;;;;;4951068;28;20417;-62
2022/07/27 06:39:23;;;;;;;5.80;2.90;;;;;;;;;;4950871;28;20494;-62
2022/07/27 06:41:48;;;;;;;5.45;2.50;;;;;;;;;;4951810;28;20432;-62
2022/07/27 06:44:14;;;;;;;3.92;2.15;;;;;;;;;;4951036;28;20026;-62
2022/07/27 06:46:39;;;;;;;4.13;2.38;;;;;;;;;;4951377;28;20038;-62
2022/07/27 06:49:05;;;;;;;5.28;2.88;;;;;;;;;;4951052;28;20457;-62
2022/07/27 06:51:30;;;;;;;4.47;2.50;;;;;;;;;;4950757;28;20352;-62
2022/07/27 06:53:55;;;;;;;4.30;2.35;;;;;;;;;;4952152;28;20512;-62
2022/07/27 06:56:21;;;;;;;3.83;2.50;;;;;;;;;;4950869;28;20388;-66
2022/07/27 06:58:47;;;;;;;4.32;2.90;;;;;;;;;;4951355;28;20409;-62
2022/07/27 07:01:13;;;;;;;3.83;2.15;;;;;;;;;;4950572;28;20419;-62
2022/07/27 07:03:39;;;;;;;4.38;2.08;;;;;;;;;;4950712;28;20095;-62
2022/07/27 07:06:04;;;;;;;4.03;2.50;;;;;;;;;;4950622;28;20329;-63
2022/07/27 07:08:30;;;;;;;4.75;2.38;;;;;;;;;;4950574;28;20495;-62
2022/07/27 07:10:55;;;;;;;3.35;2.30;;;;;;;;;;4950653;28;20464;-62
2022/07/27 07:13:21;;;;;;;5.53;2.72;;;;;;;;;;4951736;28;20397;-62
2022/07/27 07:15:46;;;;;;;5.65;2.85;;;;;;;;;;4950812;28;20457;-62
2022/07/27 07:18:12;;;;;;;5.45;2.65;;;;;;;;;;4950154;28;20793;-62
2022/07/27 07:20:38;;;;;;;4.35;2.58;;;;;;;;;;4932349;28;20330;-62
2022/07/27 07:23:04;;;;;;;3.30;2.17;;;;;;;;;;4950214;28;20473;-62
2022/07/27 07:25:33;;;;;;;5.82;2.50;;;;;;;;;;4949004;28;20436;-62
2022/07/27 07:27:59;;;;;;;5.57;2.75;;;;;;;;;;4950439;28;20348;-62
2022/07/27 07:30:24;;;;;;;3.10;2.22;;;;;;;;;;4950415;28;20340;-62
2022/07/27 07:32:50;;;;;;;4.45;2.53;;;;;;;;;;4951233;28;20443;-63
2022/07/27 07:35:16;;;;;;;4.55;2.28;;;;;;;;;;4950121;28;20052;-62
2022/07/27 07:37:41;;;;;;;3.88;2.25;;;;;;;;;;4949459;28;20181;-62
2022/07/27 07:40:09;;;;;;;3.90;2.33;;;;;;;;;;4950462;28;20373;-62
2022/07/27 07:43:01;;;;;;;3.97;2.33;;;;;;;;;;4950077;28;20365;-62
2022/07/27 07:45:28;;;;;;;4.32;2.40;;;;;;;;;;4950275;28;20466;-62
2022/07/27 07:47:55;;;;;;;4.63;2.80;;;;;;;;;;4950021;28;20521;-62
2022/07/27 07:50:21;;;;;;;4.10;2.67;;;;;;;;;;4950752;28;20491;-65
2022/07/27 07:52:48;;;;;;;8.75;2.20;;;;;;;;;;4951401;28;20443;-63
2022/07/27 07:55:14;;;;;;;3.58;2.17;;;;;;;;;;4949942;28;20349;-62
2022/07/27 07:57:39;;;;;;;4.30;2.40;;;;;;;;;;4949995;28;20030;-62
2022/07/27 08:00:08;;;;;;;4.90;2.42;;;;;;;;;;4949770;28;20321;-62
2022/07/27 08:02:42;;;;;;;3.40;2.10;;;;;;;;;;4949926;28;20515;-62
2022/07/27 08:05:07;;;;;;;4.15;2.03;;;;;;;;;;4949829;28;20456;-62
2022/07/27 08:07:33;;;;;;;4.07;2.13;;;;;;;;;;4949802;28;20476;-63
2022/07/27 08:09:58;;;;;;;3.58;2.00;;;;;;;;;;4949832;28;20321;-63
2022/07/27 08:12:23;;;;;;;4.55;2.10;;;;;;;;;;4950212;28;20061;-62
2022/07/27 08:14:49;;;;;;;4.88;2.30;;;;;;;;;;4950628;28;20456;-62
2022/07/27 08:17:15;;;;;;;3.42;2.20;;;;;;;;;;4950262;28;20333;-63
2022/07/27 08:19:41;;;;;;;4.15;2.13;;;;;;;;;;4949765;28;20321;-62
2022/07/27 08:22:06;;;;;;;4.15;2.28;;;;;;;;;;4949034;28;20368;-62
2022/07/27 08:24:32;;;;;;;3.47;2.15;;;;;;;;;;4949656;28;20476;-62
2022/07/27 08:26:57;;;;;;;4.05;2.20;;;;;;;;;;4949472;28;20346;-63
2022/07/27 08:29:23;;;;;;;3.67;2.22;;;;;;;;;;4949639;28;20491;-62
2022/07/27 08:31:48;;;;;;;4.45;2.38;;;;;;;;;;4949548;28;20518;-62
2022/07/27 08:34:13;;;;;;;4.07;2.22;;;;;;;;;;4949366;28;20491;-62
2022/07/27 08:36:39;;;;;;;3.28;1.83;;;;;;;;;;4949819;28;20444;-62
2022/07/27 08:39:07;;;;;;;4.53;2.28;;;;;;;;;;4949374;28;20092;-62
2022/07/27 08:41:33;;;;;;;4.05;2.30;;;;;;;;;;4949246;28;20371;-63
2022/07/27 08:43:59;;;;;;;4.88;2.05;;;;;;;;;;4949337;28;20455;-62
2022/07/27 08:46:25;;;;;;;3.75;2.10;;;;;;;;;;4931794;28;20535;-62
2022/07/27 08:48:51;;;;;;;3.50;1.83;;;;;;;;;;4950806;28;20523;-63
2022/07/27 08:51:17;;;;;;;3.65;2.03;;;;;;;;;;4953353;28;20437;-63
2022/07/27 08:53:42;;;;;;;4.25;2.28;;;;;;;;;;4936322;28;20372;-62
2022/07/27 08:56:08;;;;;;;4.43;2.17;;;;;;;;;;4954546;28;20442;-62
2022/07/27 08:58:33;;;;;;;4.25;2.30;;;;;;;;;;4953176;28;20465;-63
2022/07/27 09:00:59;;;;;;;4.03;2.20;;;;;;;;;;4952885;28;20625;-62
2022/07/27 09:03:24;;;;;;;2.78;1.77;;;;;;;;;;4953130;28;20048;-63
2022/07/27 09:05:54;;;;;;;2.90;1.80;;;;;;;;;;4952663;28;20483;-63
2022/07/27 09:08:23;;;;;;;3.33;1.77;;;;;;;;;;4953224;28;20365;-62
2022/07/27 09:10:49;;;;;;;3.05;1.92;;;;;;;;;;4952832;28;20456;-63
2022/07/27 09:13:23;;;;;;;4.68;2.50;;;;;;;;;;4935305;28;20417;-63
2022/07/27 09:15:51;;;;;;;5.32;2.17;;;;;;;;;;4953333;28;20364;-62
2022/07/27 09:18:25;;;;;;;3.35;2.00;;;;;;;;;;4952526;28;20375;-63
2022/07/27 09:21:06;;;;;;;3.40;1.88;;;;;;;;;;4952160;28;20575;-63
2022/07/27 09:23:31;;;;;;;3.58;2.20;;;;;;;;;;4952501;28;20076;-62
2022/07/27 09:26:11;;;;;;;2.72;2.00;;;;;;;;;;4952695;28;20104;-62
2022/07/27 09:28:37;;;;;;;5.05;1.80;;;;;;;;;;4954107;28;20451;-62
2022/07/27 09:31:07;;;;;;;3.88;1.90;;;;;;;;;;4952623;28;20105;-64
2022/07/27 09:33:44;;;;;;;2.85;1.83;;;;;;;;;;4952758;28;20393;-62
2022/07/27 09:36:09;;;;;;;3.35;1.80;;;;;;;;;;4953772;28;20314;-62
2022/07/27 09:38:35;;;;;;;2.95;2.28;;;;;;;;;;4952221;28;20318;-63
2022/07/27 09:41:02;;;;;;;2.63;1.70;;;;;;;;;;4952758;28;20384;-62
2022/07/27 09:43:28;;;;;;;2.45;1.95;;;;;;;;;;4953177;28;20452;-62
2022/07/27 09:45:54;;;;;;;2.83;1.80;;;;;;;;;;4952658;28;20349;-62
2022/07/27 09:48:21;;;;;;;4.82;1.95;;;;;;;;;;4952525;28;20088;-63
2022/07/27 09:51:00;;;;;;;3.80;1.60;;;;;;;;;;4952691;28;20445;-62
2022/07/27 09:53:29;;;;;;;2.90;2.05;;;;;;;;;;4951878;28;20063;-63
2022/07/27 09:56:12;;;;;;;5.28;2.10;;;;;;;;;;4951924;28;20353;-63
2022/07/27 09:58:45;;;;;;;3.60;2.10;;;;;;;;;;4952162;28;20084;-62
2022/07/27 10:01:20;;;;;;;2.58;1.55;;;;;;;;;;4950893;28;20429;-63
2022/07/27 10:03:47;;;;;;;3.10;1.95;;;;;;;;;;4951761;28;20390;-62
2022/07/27 10:06:14;;;;;;;3.25;1.95;;;;;;;;;;4952353;28;20507;-63
2022/07/27 10:08:42;;;;;;;2.58;1.58;;;;;;;;;;4934332;28;20453;-62
2022/07/27 10:11:08;;;;;;;3.33;1.88;;;;;;;;;;4952635;28;20471;-62
2022/07/27 10:13:34;;;;;;;2.63;1.83;;;;;;;;;;4951877;28;20457;-62
2022/07/27 10:16:01;;;;;;;3.38;2.08;;;;;;;;;;4952262;28;20441;-62
2022/07/27 10:18:36;;;;;;;3.05;2.00;;;;;;;;;;4951685;28;20337;-64
2022/07/27 10:21:07;;;;;;;3.58;2.15;;;;;;;;;;4934856;28;20357;-63
2022/07/27 10:23:36;;;;;;;2.72;1.63;;;;;;;;;;4934416;28;20667;-63
2022/07/27 10:26:27;;;;;;;3.92;2.15;;;;;;;;;;4951937;28;20384;-63
2022/07/27 10:28:57;;;;;;;3.25;1.95;;;;;;;;;;4952264;28;20496;-63
2022/07/27 10:31:28;;;;;;;3.25;1.80;;;;;;;;;;4951335;28;20460;-63
2022/07/27 10:33:55;;;;;;;3.45;1.85;;;;;;;;;;4951944;28;20514;-63
2022/07/27 10:36:30;;;;;;;2.95;1.90;;;;;;;;;;4951727;28;20034;-63
2022/07/27 10:38:58;;;;;;;2.58;1.70;;;;;;;;;;4953058;28;20328;-63
2022/07/27 10:41:26;;;;;;;3.38;1.83;;;;;;;;;;4951466;28;20416;-62
2022/07/27 10:44:13;;;;;;;2.70;1.70;;;;;;;;;;4950896;28;20380;-63
2022/07/27 10:46:45;;;;;;;2.17;1.48;;;;;;;;;;4951364;28;20352;-63
2022/07/27 10:49:40;;;;;;;3.13;1.73;;;;;;;;;;4951753;28;20422;-63
2022/07/27 10:52:05;;;;;;;3.08;1.98;;;;;;;;;;4928824;28;20298;-63
2022/07/27 10:54:33;;;;;;;2.65;1.58;;;;;;;;;;4951535;28;20345;-62
2022/07/27 10:57:00;;;;;;;3.00;1.63;;;;;;;;;;4951253;28;20488;-62
2022/07/27 10:59:37;;;;;;;2.15;1.73;;;;;;;;;;4951081;28;20413;-63
2022/07/27 11:02:04;;;;;;;3.78;1.42;;;;;;;;;;4951356;28;20384;-63
2022/07/27 11:04:31;;;;;;;2.10;1.60;;;;;;;;;;4950683;28;20029;-63
2022/07/27 11:06:59;;;;;;;2.53;1.75;;;;;;;;;;4950872;28;20512;-63
2022/07/27 11:09:46;;;;;;;2.00;1.60;;;;;;;;;;4950773;28;20440;-63
2022/07/27 11:12:12;;;;;;;2.90;1.70;;;;;;;;;;4950198;28;20324;-63
2022/07/27 11:14:54;;;;;;;3.75;1.77;;;;;;;;;;4951348;28;20464;-63
2022/07/27 11:17:23;;;;;;;2.83;1.55;;;;;;;;;;4951056;28;20440;-62
2022/07/27 11:19:55;;;;;;;;;;;;;;;;;;4951486;28;20523;-63
2022/07/27 11:22:37;;;;;;;2.47;1.45;;;;;;;;;;4950044;28;20003;-63
2022/07/27 11:25:04;;;;;;;2.03;1.35;;;;;;;;;;4950676;28;20425;-63
2022/07/27 11:27:30;;;;;;;1.98;1.13;;;;;;;;;;4950656;28;20401;-64
2022/07/27 11:29:56;;;;;;;2.13;1.63;;;;;;;;;;4950261;28;20148;-68
2022/07/27 11:32:22;;;;;;;2.88;1.67;;;;;;;;;;4950451;28;20458;-63
2022/07/27 11:34:48;;;;;;;2.15;1.50;;;;;;;;;;4950152;28;20384;-63
2022/07/27 11:37:18;;;;;;;2.53;1.48;;;;;;;;;;4950010;28;20437;-63
2022/07/27 11:39:47;;;;;;;2.42;1.30;;;;;;;;;;4950162;28;20427;-63
2022/07/27 11:42:14;;;;;;;2.35;1.40;;;;;;;;;;4932096;28;20464;-62
2022/07/27 11:44:41;;;;;;;6.00;1.98;;;;;;;;;;4951471;28;20026;-63
2022/07/27 11:47:07;;;;;;;3.33;1.58;;;;;;;;;;4950128;28;20372;-63
2022/07/27 11:49:32;;;;;;;3.17;1.40;;;;;;;;;;4950223;28;20350;-63
2022/07/27 11:51:59;;;;;;;2.47;1.40;;;;;;;;;;4950622;28;20492;-62
2022/07/27 11:54:30;;;;;;;2.15;1.42;;;;;;;;;;4932593;28;20543;-63
2022/07/27 11:57:03;;;;;;;1.88;1.50;;;;;;;;;;4950240;28;20048;-64
2022/07/27 11:59:30;;;;;;;1.88;1.40;;;;;;;;;;4950317;28;20461;-63
2022/07/27 12:01:57;;;;;;;2.33;1.45;;;;;;;;;;4951036;28;20348;-63
2022/07/27 12:04:28;;;;;;;2.05;1.35;;;;;;;;;;4949915;28;20029;-63
2022/07/27 12:07:06;;;;;;;1.63;1.27;;;;;;;;;;4949333;28;20456;-62
2022/07/27 12:09:55;;;;;;;2.47;1.43;;;;;;;;;;4949366;28;20444;-63
2022/07/27 12:12:21;;;;;;;4.22;1.60;;;;;;;;;;4949319;28;20672;-63
2022/07/27 12:15:00;;;;;;;2.78;1.30;;;;;;;;;;4949252;28;20452;-63
2022/07/27 12:17:29;;;;;;;1.95;1.30;;;;;;;;;;4949912;28;20030;-62
2022/07/27 12:20:02;;;;;;;2.13;1.40;;;;;;;;;;4951223;28;20392;-63
2022/07/27 12:22:30;;;;;;;3.78;1.50;;;;;;;;;;4949225;28;20453;-63
2022/07/27 12:24:57;;;;;;;1.88;1.40;;;;;;;;;;4949371;28;20030;-64
2022/07/27 12:27:25;;;;;;;1.77;1.00;;;;;;;;;;4949593;28;20462;-63
2022/07/27 12:30:18;;;;;;;1.50;1.02;;;;;;;;;;4949076;28;20116;-63
2022/07/27 12:32:44;;;;;;;1.73;1.10;;;;;;;;;;4947842;28;20352;-64
2022/07/27 12:35:18;;;;;;;1.35;1.08;;;;;;;;;;4949114;28;20387;-65
2022/07/27 12:37:44;;;;;;;1.73;1.30;;;;;;;;;;4951477;28;20080;-63
2022/07/27 12:40:14;;;;;;;1.70;1.23;;;;;;;;;;4949203;28;20496;-63
2022/07/27 12:42:40;;;;;;;2.45;1.38;;;;;;;;;;4949586;28;20034;-63
2022/07/27 12:45:14;;;;;;;1.80;1.20;;;;;;;;;;4950203;28;20513;-62
2022/07/27 12:47:40;;;;;;;1.85;1.15;;;;;;;;;;4949336;28;20492;-63
2022/07/27 12:50:18;;;;;;;3.20;1.20;;;;;;;;;;4949795;28;20452;-63
2022/07/27 12:52:52;;;;;;;1.80;1.15;;;;;;;;;;4949373;28;20361;-63
2022/07/27 12:55:18;;;;;;;1.50;1.10;;;;;;;;;;4949649;28;20436;-63
2022/07/27 12:57:45;;;;;;;1.30;1.10;;;;;;;;;;4949683;28;20466;-63
2022/07/27 13:00:14;;;;;;;2.63;1.20;;;;;;;;;;4950916;28;20436;-63
2022/07/27 13:02:41;;;;;;;1.42;1.00;;;;;;;;;;4950024;28;20396;-64
2022/07/27 13:05:08;;;;;;;1.80;1.00;;;;;;;;;;4949453;28;20337;-64
2022/07/27 13:07:37;;;;;;;1.70;1.10;;;;;;;;;;4949651;28;20310;-63
2022/07/27 13:10:05;;;;;;;1.60;1.30;;;;;;;;;;4949393;28;20412;-63
2022/07/27 13:12:31;;;;;;;2.10;1.15;;;;;;;;;;4949332;28;20408;-64
2022/07/27 13:14:56;;;;;;;1.35;1.00;;;;;;;;;;4949201;28;20404;-63
2022/07/27 13:17:22;;;;;;;1.75;0.90;;;;;;;;;;4949034;28;20340;-64
2022/07/27 13:19:47;;;;;;;1.52;1.27;;;;;;;;;;4949088;28;20329;-63
2022/07/27 13:22:13;;;;;;;1.85;1.23;;;;;;;;;;4949151;28;20054;-66
2022/07/27 13:24:38;;;;;;;1.45;1.13;;;;;;;;;;4949506;28;20432;-63
2022/07/27 13:27:04;;;;;;;2.25;1.20;;;;;;;;;;4949323;28;20429;-63
2022/07/27 13:29:30;;;;;;;1.88;1.10;;;;;;;;;;4949303;28;20061;-63
2022/07/27 13:31:56;;;;;;;2.00;1.10;;;;;;;;;;4949151;28;20026;-64
2022/07/27 13:34:21;;;;;;;2.33;1.17;;;;;;;;;;4948841;28;20421;-63
2022/07/27 13:36:46;;;;;;;1.25;1.08;;;;;;;;;;4951128;28;20519;-63
2022/07/27 13:39:13;;;;;;;1.38;1.20;;;;;;;;;;4953701;28;20376;-62
2022/07/27 13:41:40;;;;;;;1.13;1.00;;;;;;;;;;4952321;28;20441;-63
2022/07/27 13:44:06;;;;;;;3.72;1.08;;;;;;;;;;4952287;28;20310;-62
2022/07/27 13:46:32;;;;;;;1.23;1.13;;;;;;;;;;4952229;28;20424;-63
2022/07/27 13:48:57;;;;;;;1.52;1.10;;;;;;;;;;4952474;28;20382;-63
2022/07/27 13:51:23;;;;;;;1.38;1.05;;;;;;;;;;4952044;28;20391;-65
2022/07/27 13:53:48;;;;;;;2.45;1.10;;;;;;;;;;4952516;28;20049;-63
2022/07/27 13:56:14;;;;;;;1.90;1.00;;;;;;;;;;4952173;28;20405;-63
2022/07/27 13:58:39;;;;;;;1.85;1.20;;;;;;;;;;4951867;28;20462;-63
2022/07/27 14:01:06;;;;;;;1.10;0.90;;;;;;;;;;4951998;28;20033;-63
2022/07/27 14:03:31;;;;;;;1.90;1.10;;;;;;;;;;4951593;28;20510;-63
2022/07/27 14:05:56;;;;;;;2.80;1.20;;;;;;;;;;4953463;28;20436;-63
2022/07/27 14:08:22;;;;;;;0.95;0.85;;;;;;;;;;4952155;28;20022;-63
2022/07/27 14:10:47;;;;;;;1.58;1.08;;;;;;;;;;4951794;28;20445;-63
2022/07/27 14:13:14;;;;;;;1.73;1.30;;;;;;;;;;4952852;28;20425;-63
2022/07/27 14:15:42;;;;;;;1.20;1.10;;;;;;;;;;4953176;28;20487;-62
2022/07/27 14:18:07;;;;;;;1.50;1.00;;;;;;;;;;4951735;28;20407;-62
2022/07/27 14:20:33;;;;;;;1.48;1.02;;;;;;;;;;4951780;28;20344;-65
2022/07/27 14:22:59;;;;;;;1.95;1.20;;;;;;;;;;4951837;28;20475;-63
2022/07/27 14:25:25;;;;;;;2.17;1.30;;;;;;;;;;4951558;28;20401;-63
2022/07/27 14:27:51;;;;;;;1.30;1.10;;;;;;;;;;4951864;28;20453;-63
2022/07/27 14:30:16;;;;;;;1.33;0.98;;;;;;;;;;4951681;28;20456;-63
2022/07/27 14:32:42;;;;;;;2.10;0.90;;;;;;;;;;4951208;28;20432;-64
2022/07/27 14:35:07;;;;;;;1.73;1.02;;;;;;;;;;4951570;28;20408;-63
2022/07/27 14:37:33;;;;;;;2.50;1.38;;;;;;;;;;4951003;28;20151;-63
2022/07/27 14:39:59;;;;;;;1.10;1.00;;;;;;;;;;4951976;28;20486;-64
2022/07/27 14:42:24;;;;;;;2.28;1.30;;;;;;;;;;4951387;28;20388;-63
2022/07/27 14:44:50;;;;;;;5.57;1.50;;;;;;;;;;4951298;28;20093;-62
2022/07/27 14:47:16;;;;;;;2.35;1.48;;;;;;;;;;4951038;28;20397;-63